createdAt,value
2017-12-13T00:00:16.669Z,11.50
2017-12-13T00:02:42.789Z,11.90
2017-12-13T00:05:09.065Z,11.35
2017-12-13T00:07:35.169Z,11.30
2017-12-13T00:10:01.269Z,11.40
2017-12-13T00:12:28.120Z,10.95
2017-12-13T00:14:54.965Z,11.45
2017-12-13T00:17:21.068Z,10.93
2017-12-13T00:19:47.648Z,10.68
2017-12-13T00:22:13.762Z,8.57
2017-12-13T00:24:39.857Z,9.75
2017-12-13T00:27:05.956Z,8.77
2017-12-13T00:29:32.066Z,8.90
2017-12-13T00:31:58.213Z,9.60
2017-12-13T00:34:24.340Z,8.63
2017-12-13T00:36:51.400Z,9.82
2017-12-13T00:39:18.249Z,9.38
2017-12-13T00:41:45.204Z,9.73
2017-12-13T00:44:12.056Z,8.38
2017-12-13T00:46:38.163Z,8.07
2017-12-13T00:49:04.264Z,8.70
2017-12-13T00:51:30.385Z,9.13
2017-12-13T00:53:56.525Z,8.18
2017-12-13T00:56:22.637Z,7.97
2017-12-13T00:58:48.976Z,8.02
2017-12-13T01:01:15.294Z,8.90
2017-12-13T01:03:42.357Z,8.43
2017-12-13T01:06:08.556Z,8.10
2017-12-13T01:08:34.708Z,8.60
2017-12-13T01:11:00.816Z,8.60
2017-12-13T01:13:26.913Z,8.65
2017-12-13T01:15:53.031Z,7.70
2017-12-13T01:18:19.883Z,8.02
2017-12-13T01:20:45.984Z,8.40
2017-12-13T01:23:12.097Z,7.97
2017-12-13T01:25:38.404Z,8.23
2017-12-13T01:28:04.719Z,8.63
2017-12-13T01:30:31.028Z,8.75
2017-12-13T01:32:57.464Z,7.55
2017-12-13T01:35:24.564Z,8.40
2017-12-13T01:37:50.672Z,7.82
2017-12-13T01:40:17.520Z,8.45
2017-12-13T01:42:44.357Z,8.40
2017-12-13T01:45:10.475Z,9.40
2017-12-13T01:47:36.600Z,9.05
2017-12-13T01:50:02.713Z,8.90
2017-12-13T01:52:29.770Z,9.68
2017-12-13T01:54:55.912Z,9.10
2017-12-13T01:57:25.738Z,8.73
2017-12-13T01:59:51.856Z,9.50
2017-12-13T02:02:17.977Z,9.45
2017-12-13T02:04:44.078Z,9.35
2017-12-13T02:07:10.939Z,10.35
2017-12-13T02:09:37.134Z,8.65
2017-12-13T02:12:03.251Z,9.13
2017-12-13T02:14:30.228Z,9.60
2017-12-13T02:16:56.606Z,9.15
2017-12-13T02:19:22.993Z,9.50
2017-12-13T02:21:49.325Z,9.40
2017-12-13T02:24:16.400Z,10.45
2017-12-13T02:26:43.488Z,8.55
2017-12-13T02:29:09.794Z,9.80
2017-12-13T02:31:36.850Z,8.00
2017-12-13T02:34:06.006Z,9.30
2017-12-13T02:36:32.112Z,8.63
2017-12-13T02:38:58.944Z,8.82
2017-12-13T02:41:25.069Z,9.05
2017-12-13T02:43:52.603Z,7.60
2017-12-13T02:46:18.718Z,7.95
2017-12-13T02:48:44.824Z,7.80
2017-12-13T02:51:10.924Z,8.15
2017-12-13T02:53:37.076Z,7.90
2017-12-13T02:56:03.192Z,7.32
2017-12-13T02:58:29.426Z,7.05
2017-12-13T03:00:56.344Z,7.75
2017-12-13T03:03:23.204Z,7.10
2017-12-13T03:05:50.060Z,7.32
2017-12-13T03:08:16.901Z,8.10
2017-12-13T03:10:42.999Z,7.20
2017-12-13T03:13:09.205Z,8.27
2017-12-13T03:15:36.067Z,7.75
2017-12-13T03:18:02.932Z,7.15
2017-12-13T03:20:29.043Z,6.95
2017-12-13T03:22:55.171Z,5.90
2017-12-13T03:25:21.296Z,7.00
2017-12-13T03:27:47.482Z,6.82
2017-12-13T03:30:13.598Z,5.95
2017-12-13T03:32:40.470Z,6.72
2017-12-13T03:35:06.581Z,6.18
2017-12-13T03:37:32.659Z,6.72
2017-12-13T03:39:58.795Z,6.10
2017-12-13T03:42:24.925Z,6.82
2017-12-13T03:44:51.044Z,6.20
2017-12-13T03:47:17.153Z,6.87
2017-12-13T03:49:43.471Z,6.20
2017-12-13T03:52:09.828Z,7.37
2017-12-13T03:54:36.143Z,6.90
2017-12-13T03:57:02.450Z,6.35
2017-12-13T03:59:28.746Z,6.65
2017-12-13T04:01:55.064Z,5.80
2017-12-13T04:04:21.449Z,5.05
2017-12-13T04:06:47.595Z,6.35
2017-12-13T04:09:13.967Z,5.50
2017-12-13T04:11:40.105Z,5.45
2017-12-13T04:14:06.445Z,5.93
2017-12-13T04:16:32.804Z,5.47
2017-12-13T04:18:59.153Z,6.12
2017-12-13T04:21:25.482Z,4.82
2017-12-13T04:23:51.809Z,4.78
2017-12-13T04:26:18.166Z,4.15
2017-12-13T04:28:44.511Z,5.37
2017-12-13T04:31:10.848Z,5.60
2017-12-13T04:33:37.293Z,6.07
2017-12-13T04:36:03.649Z,5.90
2017-12-13T04:38:29.994Z,5.10
2017-12-13T04:40:56.371Z,4.87
2017-12-13T04:43:22.732Z,4.45
2017-12-13T04:45:49.054Z,5.05
2017-12-13T04:48:15.735Z,4.82
2017-12-13T04:50:42.060Z,4.50
2017-12-13T04:53:08.411Z,4.47
2017-12-13T04:55:34.728Z,4.55
2017-12-13T04:58:01.074Z,5.00
2017-12-13T05:00:33.240Z,5.10
2017-12-13T05:02:59.581Z,5.22
2017-12-13T05:05:25.891Z,4.95
2017-12-13T05:07:52.247Z,5.03
2017-12-13T05:10:18.613Z,4.87
2017-12-13T05:12:44.952Z,4.90
2017-12-13T05:15:11.312Z,4.85
2017-12-13T05:17:37.721Z,5.20
2017-12-13T05:20:04.075Z,5.53
2017-12-13T05:22:30.459Z,5.00
2017-12-13T05:24:56.793Z,4.68
2017-12-13T05:27:23.135Z,5.00
2017-12-13T05:29:49.484Z,4.62
2017-12-13T05:32:15.810Z,4.20
2017-12-13T05:34:42.126Z,5.10
2017-12-13T05:37:08.523Z,5.57
2017-12-13T05:39:34.861Z,4.90
2017-12-13T05:42:01.618Z,5.50
2017-12-13T05:44:27.959Z,4.50
2017-12-13T05:46:54.297Z,5.43
2017-12-13T05:49:20.500Z,4.50
2017-12-13T05:51:47.601Z,5.22
2017-12-13T05:54:13.746Z,4.65
2017-12-13T05:56:40.082Z,5.35
2017-12-13T05:59:06.201Z,5.30
2017-12-13T06:01:32.544Z,5.60
2017-12-13T06:03:58.862Z,5.07
2017-12-13T06:06:25.178Z,5.47
2017-12-13T06:08:51.564Z,5.47
2017-12-13T06:11:17.889Z,5.35
2017-12-13T06:13:44.238Z,4.60
2017-12-13T06:16:12.570Z,5.70
2017-12-13T06:18:39.693Z,6.07
2017-12-13T06:21:06.017Z,5.60
2017-12-13T06:23:32.332Z,4.90
2017-12-13T06:25:58.695Z,5.57
2017-12-13T06:28:25.026Z,6.05
2017-12-13T06:30:51.373Z,5.45
2017-12-13T06:33:18.441Z,5.65
2017-12-13T06:35:44.884Z,5.30
2017-12-13T06:38:11.197Z,5.40
2017-12-13T06:40:37.316Z,5.32
2017-12-13T06:43:03.640Z,5.78
2017-12-13T06:45:29.953Z,5.07
2017-12-13T06:47:56.060Z,5.68
2017-12-13T06:50:23.172Z,4.75
2017-12-13T06:52:49.460Z,4.82
2017-12-13T06:55:15.757Z,4.93
2017-12-13T06:57:42.062Z,5.30
2017-12-13T07:00:08.388Z,5.62
2017-12-13T07:02:35.442Z,5.53
2017-12-13T07:05:02.500Z,4.65
2017-12-13T07:07:29.467Z,5.57
2017-12-13T07:09:55.663Z,4.95
2017-12-13T07:12:21.925Z,5.57
2017-12-13T07:14:48.079Z,5.30
2017-12-13T07:17:15.021Z,5.00
2017-12-13T07:19:41.896Z,4.75
2017-12-13T07:22:08.752Z,5.47
2017-12-13T07:24:38.009Z,4.82
2017-12-13T07:27:04.164Z,4.60
2017-12-13T07:29:31.051Z,4.62
2017-12-13T07:31:57.209Z,4.75
2017-12-13T07:34:23.340Z,4.87
2017-12-13T07:36:49.464Z,4.50
2017-12-13T07:39:15.584Z,4.30
2017-12-13T07:41:42.467Z,4.03
2017-12-13T07:44:08.600Z,3.80
2017-12-13T07:46:34.945Z,4.28
2017-12-13T07:49:01.845Z,5.40
2017-12-13T07:51:29.125Z,3.95
2017-12-13T07:53:56.205Z,3.60
2017-12-13T07:56:22.581Z,3.62
2017-12-13T07:58:48.897Z,3.47
2017-12-13T08:01:15.270Z,3.28
2017-12-13T08:03:41.594Z,3.70
2017-12-13T08:06:07.956Z,3.60
2017-12-13T08:08:34.306Z,4.40
2017-12-13T08:11:00.625Z,3.30
2017-12-13T08:13:26.982Z,3.42
2017-12-13T08:15:53.473Z,2.80
2017-12-13T08:18:19.813Z,3.33
2017-12-13T08:20:46.550Z,3.45
2017-12-13T08:23:12.861Z,3.37
2017-12-13T08:25:39.225Z,3.47
2017-12-13T08:28:05.555Z,3.58
2017-12-13T08:30:34.343Z,3.60
2017-12-13T08:33:01.188Z,3.55
2017-12-13T08:35:27.305Z,3.03
2017-12-13T08:37:53.421Z,2.60
2017-12-13T08:40:19.557Z,3.20
2017-12-13T08:42:45.692Z,2.80
2017-12-13T08:45:11.805Z,2.87
2017-12-13T08:47:38.257Z,3.60
2017-12-13T08:50:04.582Z,3.25
2017-12-13T08:52:30.879Z,2.95
2017-12-13T08:54:57.213Z,3.25
2017-12-13T08:57:23.559Z,3.12
2017-12-13T08:59:49.878Z,3.15
2017-12-13T09:02:16.233Z,3.33
2017-12-13T09:04:43.302Z,2.70
2017-12-13T09:09:41.484Z,2.83
2017-12-13T09:12:07.600Z,2.62
2017-12-13T09:14:33.703Z,2.90
2017-12-13T09:16:59.817Z,3.00
2017-12-13T09:19:25.946Z,3.10
2017-12-13T09:21:52.135Z,2.40
2017-12-13T09:24:24.476Z,3.70
2017-12-13T09:26:51.425Z,2.45
2017-12-13T09:29:17.600Z,2.95
2017-12-13T09:31:43.745Z,3.05
2017-12-13T09:34:09.974Z,2.70
2017-12-13T09:36:36.149Z,3.33
2017-12-13T09:39:02.333Z,2.80
2017-12-13T09:41:28.481Z,2.47
2017-12-13T09:43:57.148Z,3.08
2017-12-13T09:46:24.245Z,3.35
2017-12-13T09:48:50.621Z,2.83
2017-12-13T09:51:16.806Z,2.80
2017-12-13T09:53:43.188Z,2.70
2017-12-13T09:56:09.529Z,3.37
2017-12-13T09:58:36.700Z,3.00
2017-12-13T10:01:03.773Z,3.00
2017-12-13T10:03:33.309Z,2.60
2017-12-13T10:05:59.685Z,2.50
2017-12-13T10:08:26.779Z,2.90
2017-12-13T10:10:52.931Z,3.05
2017-12-13T10:13:19.293Z,2.78
2017-12-13T10:15:45.629Z,2.90
2017-12-13T10:18:11.938Z,2.80
2017-12-13T10:20:38.306Z,3.00
2017-12-13T10:23:07.941Z,2.60
2017-12-13T10:25:34.278Z,2.80
2017-12-13T10:28:00.630Z,2.12
2017-12-13T10:30:27.689Z,2.60
2017-12-13T10:32:53.842Z,2.10
2017-12-13T10:35:20.187Z,2.55
2017-12-13T10:37:46.516Z,2.70
2017-12-13T10:40:16.588Z,1.90
2017-12-13T10:42:42.917Z,2.47
2017-12-13T10:45:09.289Z,2.08
2017-12-13T10:47:35.680Z,2.00
2017-12-13T10:50:02.003Z,2.10
2017-12-13T10:52:28.349Z,1.75
2017-12-13T10:54:55.452Z,2.20
2017-12-13T10:57:22.440Z,1.85
2017-12-13T10:59:52.260Z,1.50
2017-12-13T11:02:18.594Z,1.58
2017-12-13T11:04:44.928Z,1.37
2017-12-13T11:07:11.306Z,1.70
2017-12-13T11:09:37.752Z,1.60
2017-12-13T11:12:04.103Z,1.30
2017-12-13T11:14:30.511Z,1.33
2017-12-13T11:17:00.524Z,1.20
2017-12-13T11:19:27.606Z,1.15
2017-12-13T11:21:54.021Z,1.20
2017-12-13T11:24:20.390Z,1.40
2017-12-13T11:26:46.720Z,1.48
2017-12-13T11:29:13.032Z,1.50
2017-12-13T11:34:11.456Z,1.25
2017-12-13T11:36:37.820Z,1.30
2017-12-13T11:39:04.184Z,1.40
2017-12-13T11:41:30.520Z,1.40
2017-12-13T11:43:56.830Z,1.70
2017-12-13T11:46:23.140Z,1.40
2017-12-13T11:48:49.474Z,1.40
2017-12-13T11:51:22.699Z,1.30
2017-12-13T11:53:49.016Z,1.48
2017-12-13T11:56:15.372Z,1.30
2017-12-13T11:58:41.912Z,1.30
2017-12-13T12:01:08.288Z,1.40
2017-12-13T12:03:34.384Z,1.50
2017-12-13T12:06:00.684Z,1.50
2017-12-13T12:08:30.724Z,1.40
2017-12-13T12:10:57.177Z,1.40
2017-12-13T12:13:23.507Z,1.50
2017-12-13T12:15:50.545Z,1.30
2017-12-13T12:18:16.662Z,1.52
2017-12-13T12:20:42.970Z,1.35
2017-12-13T12:23:09.318Z,1.87
2017-12-13T12:25:40.807Z,1.90
2017-12-13T12:28:07.141Z,1.90
2017-12-13T12:30:34.222Z,1.62
2017-12-13T12:33:01.277Z,1.70
2017-12-13T12:35:28.361Z,1.70
2017-12-13T12:37:55.226Z,1.98
2017-12-13T12:40:21.353Z,2.05
2017-12-13T12:42:50.480Z,2.12
2017-12-13T12:45:16.806Z,2.10
2017-12-13T12:47:43.133Z,2.20
2017-12-13T12:50:09.449Z,2.40
2017-12-13T12:52:35.778Z,2.25
2017-12-13T12:55:02.117Z,2.28
2017-12-13T12:57:28.465Z,2.53
2017-12-13T12:59:54.727Z,2.20
2017-12-13T13:02:27.344Z,2.33
2017-12-13T13:04:53.677Z,2.03
2017-12-13T13:07:20.118Z,2.60
2017-12-13T13:09:46.448Z,2.25
2017-12-13T13:12:12.796Z,1.92
2017-12-13T13:14:39.870Z,2.33
2017-12-13T13:17:05.990Z,2.22
2017-12-13T13:19:35.537Z,1.80
2017-12-13T13:22:01.870Z,2.60
2017-12-13T13:24:28.240Z,2.35
2017-12-13T13:26:54.612Z,1.90
2017-12-13T13:29:20.933Z,2.15
2017-12-13T13:31:47.317Z,1.85
2017-12-13T13:34:13.671Z,1.70
2017-12-13T13:36:40.756Z,1.83
2017-12-13T13:39:10.336Z,1.67
2017-12-13T13:41:36.677Z,1.35
2017-12-13T13:44:03.012Z,1.55
2017-12-13T13:46:29.334Z,1.50
2017-12-13T13:48:55.666Z,1.92
2017-12-13T13:51:21.991Z,1.30
2017-12-13T13:53:48.327Z,1.85
2017-12-13T13:56:14.638Z,1.60
2017-12-13T13:58:46.085Z,1.42
2017-12-13T14:01:12.436Z,0.82
2017-12-13T14:03:39.798Z,1.05
2017-12-13T14:06:05.955Z,1.02
2017-12-13T14:08:32.294Z,1.45
2017-12-13T14:10:58.412Z,1.60
2017-12-13T14:13:24.736Z,1.37
2017-12-13T14:15:55.664Z,1.10
2017-12-13T14:18:21.956Z,1.30
2017-12-13T14:20:48.276Z,1.10
2017-12-13T14:23:14.673Z,1.30
2017-12-13T14:25:41.035Z,0.93
2017-12-13T14:28:07.372Z,0.90
2017-12-13T14:30:33.712Z,0.88
2017-12-13T14:33:00.064Z,1.33
2017-12-13T14:35:30.709Z,1.00
2017-12-13T14:37:57.768Z,0.90
2017-12-13T14:40:24.180Z,1.10
2017-12-13T14:42:50.580Z,1.15
2017-12-13T14:45:16.786Z,1.30
2017-12-13T14:47:43.129Z,1.02
2017-12-13T14:50:09.560Z,1.55
2017-12-13T14:52:40.238Z,2.10
2017-12-13T14:55:07.323Z,1.52
2017-12-13T14:57:33.665Z,1.20
2017-12-13T15:00:00.725Z,1.27
2017-12-13T15:02:27.137Z,2.03
2017-12-13T15:04:53.515Z,1.23
2017-12-13T15:07:19.843Z,1.55
2017-12-13T15:09:46.205Z,1.40
2017-12-13T15:12:12.473Z,1.58
2017-12-13T15:14:38.813Z,1.80
2017-12-13T15:17:05.144Z,1.80
2017-12-13T15:19:32.233Z,2.55
2017-12-13T15:21:58.592Z,2.00
2017-12-13T15:24:24.952Z,2.10
2017-12-13T15:26:51.312Z,2.45
2017-12-13T15:29:17.612Z,1.85
2017-12-13T15:31:44.706Z,2.35
2017-12-13T15:34:11.084Z,2.40
2017-12-13T15:36:37.424Z,2.85
2017-12-13T15:39:03.920Z,2.58
2017-12-13T15:41:31.013Z,3.00
2017-12-13T15:43:57.171Z,3.20
2017-12-13T15:46:27.648Z,3.97
2017-12-13T15:48:54.581Z,3.78
2017-12-13T15:51:20.802Z,3.55
2017-12-13T15:53:47.989Z,3.42
2017-12-13T15:56:14.209Z,3.67
2017-12-13T15:58:41.077Z,3.20
2017-12-13T16:01:08.999Z,4.03
2017-12-13T16:03:35.121Z,3.10
2017-12-13T16:06:01.601Z,3.78
2017-12-13T16:08:28.066Z,2.80
2017-12-13T16:10:54.401Z,3.65
2017-12-13T16:13:20.810Z,3.20
2017-12-13T16:15:48.953Z,3.20
2017-12-13T16:18:16.048Z,2.60
2017-12-13T16:20:42.921Z,3.00
2017-12-13T16:23:09.056Z,2.55
2017-12-13T16:25:36.001Z,2.90
2017-12-13T16:28:02.196Z,2.87
2017-12-13T16:30:28.393Z,3.50
2017-12-13T16:32:55.333Z,2.65
2017-12-13T16:35:21.477Z,2.80
2017-12-13T16:37:47.621Z,3.45
2017-12-13T16:40:13.901Z,2.72
2017-12-13T16:42:41.001Z,3.10
2017-12-13T16:45:07.421Z,3.30
2017-12-13T16:47:33.826Z,3.85
2017-12-13T16:50:00.257Z,3.53
2017-12-13T16:52:26.836Z,3.20
2017-12-13T16:54:52.995Z,3.42
2017-12-13T16:57:19.365Z,3.37
2017-12-13T16:59:45.503Z,3.85
2017-12-13T17:02:11.908Z,4.20
2017-12-13T17:04:38.246Z,3.58
2017-12-13T17:07:04.652Z,3.60
2017-12-13T17:09:31.726Z,4.00
2017-12-13T17:11:58.783Z,3.50
2017-12-13T17:14:25.850Z,4.25
2017-12-13T17:16:53.086Z,3.33
2017-12-13T17:19:23.611Z,4.07
2017-12-13T17:21:50.548Z,3.70
2017-12-13T17:24:16.649Z,3.40
2017-12-13T17:26:42.774Z,3.60
2017-12-13T17:29:08.885Z,2.67
2017-12-13T17:31:35.215Z,3.40
2017-12-13T17:34:01.381Z,2.72
2017-12-13T17:36:27.494Z,4.05
2017-12-13T17:38:53.606Z,3.58
2017-12-13T17:41:20.476Z,3.75
2017-12-13T17:43:46.600Z,3.42
2017-12-13T17:46:12.824Z,3.17
2017-12-13T17:48:42.445Z,3.60
2017-12-13T17:51:08.635Z,3.55
2017-12-13T17:53:34.755Z,3.30
2017-12-13T17:56:00.870Z,2.90
2017-12-13T17:58:26.984Z,3.03
2017-12-13T18:00:53.176Z,3.22
2017-12-13T18:03:19.268Z,3.28
2017-12-13T18:05:46.148Z,3.12
2017-12-13T18:08:12.264Z,2.55
2017-12-13T18:10:39.121Z,2.50
2017-12-13T18:13:06.171Z,2.35
2017-12-13T18:15:33.076Z,2.95
2017-12-13T18:17:59.234Z,2.40
2017-12-13T18:20:25.456Z,2.28
2017-12-13T18:22:51.584Z,2.70
2017-12-13T18:25:18.733Z,2.10
2017-12-13T18:27:45.715Z,2.20
2017-12-13T18:30:11.983Z,2.15
2017-12-13T18:32:38.128Z,1.95
2017-12-13T18:35:12.546Z,2.50
2017-12-13T18:37:43.056Z,2.30
2017-12-13T18:40:10.997Z,2.12
2017-12-13T18:42:37.199Z,1.40
2017-12-13T18:45:04.097Z,2.15
2017-12-13T18:47:30.252Z,2.03
2017-12-13T18:49:56.408Z,1.75
2017-12-13T18:52:22.673Z,2.10
2017-12-13T18:54:49.827Z,2.22
2017-12-13T18:57:20.630Z,1.90
2017-12-13T18:59:46.784Z,1.80
2017-12-13T19:02:13.097Z,2.15
2017-12-13T19:04:39.371Z,1.90
2017-12-13T19:07:05.492Z,1.60
2017-12-13T19:09:31.667Z,2.47
2017-12-13T19:11:57.884Z,2.10
2017-12-13T19:14:24.119Z,2.40
2017-12-13T19:16:51.029Z,2.00
2017-12-13T19:19:17.987Z,2.12
2017-12-13T19:21:44.131Z,1.90
2017-12-13T19:24:10.330Z,2.10
2017-12-13T19:26:36.522Z,1.87
2017-12-13T19:29:02.653Z,2.00
2017-12-13T19:31:29.536Z,1.95
2017-12-13T19:33:56.421Z,2.50
2017-12-13T19:36:22.550Z,1.95
2017-12-13T19:38:48.689Z,2.30
2017-12-13T19:41:14.929Z,2.30
2017-12-13T19:43:41.833Z,2.17
2017-12-13T19:46:07.939Z,2.78
2017-12-13T19:48:34.056Z,2.40
2017-12-13T19:51:00.184Z,2.50
2017-12-13T19:53:26.365Z,2.42
2017-12-13T19:55:52.653Z,3.47
2017-12-13T19:58:18.768Z,3.20
2017-12-13T20:00:45.228Z,5.62
2017-12-13T20:03:12.080Z,3.12
2017-12-13T20:05:38.259Z,2.67
2017-12-13T20:08:04.364Z,3.45
2017-12-13T20:10:30.484Z,3.30
2017-12-13T20:12:56.652Z,3.37
2017-12-13T20:15:22.811Z,3.40
2017-12-13T20:17:48.924Z,3.47
2017-12-13T20:20:15.029Z,3.65
2017-12-13T20:22:42.075Z,3.50
2017-12-13T20:25:08.607Z,2.75
2017-12-13T20:27:34.844Z,3.30
2017-12-13T20:30:00.992Z,2.90
2017-12-13T20:32:27.170Z,2.03
2017-12-13T20:34:54.041Z,2.70
2017-12-13T20:37:21.160Z,2.80
2017-12-13T20:39:47.338Z,2.75
2017-12-13T20:42:13.630Z,2.40
2017-12-13T20:44:39.907Z,2.50
2017-12-13T20:47:06.029Z,2.40
2017-12-13T20:49:32.277Z,2.25
2017-12-13T20:51:58.531Z,2.50
2017-12-13T20:54:24.740Z,2.50
2017-12-13T20:56:50.894Z,2.35
2017-12-13T20:59:17.816Z,2.40
2017-12-13T21:01:44.806Z,2.50
2017-12-13T21:04:11.061Z,2.15
2017-12-13T21:06:37.213Z,2.58
2017-12-13T21:09:03.809Z,2.00
2017-12-13T21:11:30.703Z,2.40
2017-12-13T21:13:57.651Z,2.42
2017-12-13T21:16:24.628Z,2.53
2017-12-13T21:18:50.772Z,2.30
2017-12-13T21:21:16.918Z,3.15
2017-12-13T21:23:43.072Z,2.10
2017-12-13T21:26:09.197Z,2.42
2017-12-13T21:28:35.300Z,3.87
2017-12-13T21:31:02.137Z,2.30
2017-12-13T21:33:28.245Z,2.33
2017-12-13T21:35:54.375Z,2.90
2017-12-13T21:38:20.696Z,3.05
2017-12-13T21:40:47.753Z,2.28
2017-12-13T21:43:14.809Z,2.35
2017-12-13T21:45:41.493Z,3.22
2017-12-13T21:48:07.937Z,1.90
2017-12-13T21:50:34.260Z,1.70
2017-12-13T21:53:00.639Z,1.80
2017-12-13T21:55:27.679Z,1.30
2017-12-13T21:57:58.779Z,1.27
2017-12-13T22:00:24.882Z,1.20
2017-12-13T22:02:51.724Z,1.70
2017-12-13T22:05:17.828Z,1.10
2017-12-13T22:07:43.932Z,1.30
2017-12-13T22:10:10.831Z,1.50
2017-12-13T22:12:37.952Z,1.10
2017-12-13T22:15:05.225Z,1.60
2017-12-13T22:17:32.076Z,1.60
2017-12-13T22:19:58.939Z,1.85
2017-12-13T22:22:25.785Z,1.45
2017-12-13T22:24:51.943Z,1.55
2017-12-13T22:27:18.054Z,1.65
2017-12-13T22:29:44.215Z,1.67
2017-12-13T22:32:10.314Z,1.73
2017-12-13T22:34:36.452Z,1.67
2017-12-13T22:37:02.634Z,1.35
2017-12-13T22:39:28.838Z,0.82
2017-12-13T22:41:54.954Z,0.75
2017-12-13T22:44:21.087Z,1.30
2017-12-13T22:46:48.016Z,1.30
2017-12-13T22:49:14.224Z,1.20
2017-12-13T22:51:41.513Z,1.92
2017-12-13T22:54:07.643Z,1.77
2017-12-13T22:56:33.768Z,2.03
2017-12-13T22:59:02.892Z,2.10
2017-12-13T23:01:29.423Z,2.00
